Rocky Point, NC (28457)

7:13 PM EDT on March 22, 2017 (GMT -0400)
| | Change Station
Active Advisory: Freeze Warning

Elev -9999 ft 0.00 °N, 0.00 °E | Updated 4 minutes ago

Partly Cloudy
Partly Cloudy
°F
Feels Like °F
N
Wind Variable Wind from North
Gusts mph

Today
High -- | Low -- °F
--% Chance of Precip.
Yesterday
High -- | Low -- °F
Precip. -- in
Pressure 30.20 in
Visibility 10.0 miles
Clouds Mostly Cloudy 6500 ft
Dew Point Not available.
Humidity Not available.
Rainfall --
Snow Depth Not available.
7:12 AM 7:25 PM
Waning Crescent, 28% visible
METAR KILM 222253Z 10008KT 10SM BKN065 13/08 A3020 RMK AO2 SLP227 T01330078
Pressure 30.20 in
Visibility 10.0 miles
Clouds Mostly Cloudy 6500 ft
Dew Point Not available.
Humidity Not available.
Rainfall --
Snow Depth Not available.
7:12 AM 7:25 PM
Waning Crescent, 28% visible
METAR KILM 222253Z 10008KT 10SM BKN065 13/08 A3020 RMK AO2 SLP227 T01330078

Get Your Daily Forecast Email!

Thanks for signing up!

Be on the lookout for a verification email in your inbox.

You'll start receiving severe weather alerts in your inbox..

×

10-Day Weather Forecast

Almanac

Astronomy

Mar. 22, 2017 Rise Set
Actual Time
Civil Twilight
Nautical Twilight
Astronomical Twilight
Moon
Length of Visible Light
Length of Day
Tomorrow will be .
, % of the Moon is Illuminated

Today's Extremes

State Highs State Lows

Community

WunderPhotos

Upload Photos

1,962,540 photos uploaded!

WunderBlog® & News

Nearby

Air Quality

  Air Quality AQ Index Pollutant
Not available.

Snow Depth

Station Depth Elevation

Earthquake Activity

City Distance Mag. Time & Date
Minimum magnitude displayed is 2.5.

Earthquake Activity

City Distance Mag. Time & Date
Minimum magnitude displayed is 2.5.

Coastal Water Temperatures

Place Temperature

Stations

Nearby Weather Stations

Station Location Temp. Windchill Dew Point Humidity Wind Precip. Elev Updated Type
                   

Watches & Warnings

Freeze Warning
Issued: 3:14 PM EDT Mar. 22, 2017 – National Weather Service

... Freeze warning in effect from 4 am to 9 am EDT Thursday...

The National Weather Service in Wilmington has issued a freeze
warning, which is in effect from 4 am to 9 am EDT Thursday. The
freeze watch is no longer in effect.

* Temperatures... in the lower 30s.

* Timing... late tonight.

* Impacts... temperatures dipping to freezing will have the
potential to damage or kill sensitive vegetation. New leaves,
flowers, and fruit are particularly sensitive to damage.

Precautionary/preparedness actions...

A freeze warning means sub-freezing temperatures are imminent or
highly likely. These conditions will kill crops and other
sensitive vegetation.